Time;durP1;ratioP1;P1;durP2;ratioP2;P2;SDS_P1;SDS_P2;PMS_P1;PMS_P2;Temp;Humidity;BMP_temperature;BMP_pressure;BME280_temperature;BME280_humidity;BME280_pressure;Samples;Min_cycle;Max_cycle;Signal;HPM_P1;HPM_P2
2022/05/21 00:01:57;;;;;;;5.50;2.47;;;;;;;17.34;41.40;100334.91;1399808;93;21481;-87
2022/05/21 00:04:23;;;;;;;2.60;1.67;;;;;;;17.29;41.56;100339.52;1406724;92;21555;-88
2022/05/21 00:06:50;;;;;;;9.83;2.33;;;;;;;17.24;41.69;100323.73;1402806;92;21776;-88
2022/05/21 00:09:18;;;;;;;6.13;2.13;;;;;;;17.21;41.83;100309.42;1402996;92;21609;-87
2022/05/21 00:11:45;;;;;;;3.33;2.00;;;;;;;17.19;42.06;100306.10;1399788;93;21459;-87
2022/05/21 00:14:11;;;;;;;7.80;3.10;;;;;;;17.17;42.16;100310.81;1380592;94;22474;-87
2022/05/21 00:16:37;;;;;;;6.60;1.67;;;;;;;17.13;42.22;100300.50;1429319;90;21413;-87
2022/05/21 00:19:04;;;;;;;10.80;2.30;;;;;;;17.10;42.49;100294.20;1444640;90;22078;-88
2022/05/21 00:21:31;;;;;;;6.53;2.20;;;;;;;17.08;42.71;100293.56;1439470;90;22936;-87
2022/05/21 00:23:57;;;;;;;10.40;2.37;;;;;;;17.07;42.89;100281.22;1421937;91;21478;-86
2022/05/21 00:26:25;;;;;;;4.23;2.07;;;;;;;17.05;42.93;100279.25;1433316;90;21607;-86
2022/05/21 00:28:51;;;;;;;4.90;2.03;;;;;;;17.03;42.96;100277.30;1439624;90;21600;-87
2022/05/21 00:31:19;;;;;;;5.07;2.27;;;;;;;17.00;43.22;100270.97;1431512;90;21463;-84
2022/05/21 00:33:47;;;;;;;7.43;2.20;;;;;;;16.98;43.37;100268.20;1441724;90;21494;-84
2022/05/21 00:36:14;;;;;;;3.40;1.83;;;;;;;16.96;43.51;100268.38;1440782;90;22484;-85
2022/05/21 00:38:42;;;;;;;7.00;2.07;;;;;;;16.93;43.58;100258.08;1437216;90;21580;-86
2022/05/21 00:41:12;;;;;;;5.40;2.17;;;;;;;16.90;43.97;100255.79;1429780;90;21729;-85
2022/05/21 00:43:44;;;;;;;4.60;2.17;;;;;;;16.86;44.14;100239.80;1416277;90;21488;-85
2022/05/21 00:46:21;;;;;;;7.10;2.23;;;;;;;16.84;44.25;100237.86;1426921;91;22937;-85
2022/05/21 00:49:08;;;;;;;36.33;4.07;;;;;;;16.82;44.33;100238.03;1418589;91;21709;-86
2022/05/21 00:51:45;;;;;;;4.80;2.10;;;;;;;16.79;44.44;100233.59;1443189;90;21561;-85
2022/05/21 00:54:12;;;;;;;8.07;2.50;;;;;;;16.75;44.50;100238.47;1440121;89;22477;-86
2022/05/21 00:56:47;;;;;;;8.53;2.67;;;;;;;16.75;44.43;100240.32;1436095;90;21542;-86
2022/05/21 01:02:05;;;;;;;7.27;2.47;;;;;;;16.72;44.98;100232.17;1398617;91;21474;-87
2022/05/21 01:04:34;;;;;;;4.47;2.23;;;;;;;16.69;45.06;100226.70;1406396;91;21506;-86
2022/05/21 01:07:02;;;;;;;4.43;2.17;;;;;;;16.68;45.04;100226.37;1423747;91;21417;-85
2022/05/21 01:09:29;;;;;;;6.93;2.33;;;;;;;16.67;45.12;100231.41;1426428;90;22597;-86
2022/05/21 01:11:56;;;;;;;4.03;2.17;;;;;;;16.67;45.00;100231.92;1421760;90;21642;-87
2022/05/21 01:14:23;;;;;;;5.07;1.83;;;;;;;16.66;45.04;100240.45;1422453;91;22359;-86
2022/05/21 01:16:51;;;;;;;3.20;2.03;;;;;;;16.64;45.16;100238.98;1431838;90;21621;-88
2022/05/21 01:19:18;;;;;;;5.60;1.90;;;;;;;16.63;45.30;100235.97;1424450;91;21569;-88
2022/05/21 01:21:44;;;;;;;7.60;2.13;;;;;;;16.61;45.41;100237.52;1427431;91;22523;-88
2022/05/21 01:24:12;;;;;;;7.23;2.57;;;;;;;16.59;45.46;100238.21;1430765;90;21488;-88
2022/05/21 01:26:40;;;;;;;11.47;2.60;;;;;;;16.59;45.50;100240.06;1438081;90;21559;-89
2022/05/21 01:29:21;;;;;;;12.37;3.00;;;;;;;16.55;45.71;100244.97;1395862;93;21578;-89
2022/05/21 01:31:53;;;;;;;4.30;2.25;;;;;;;16.53;45.69;100244.32;1403095;92;21431;-86
2022/05/21 01:34:21;;;;;;;6.50;2.13;;;;;;;16.50;46.01;100241.21;1394431;92;21501;-87
2022/05/21 01:36:47;;;;;;;5.70;1.80;;;;;;;16.49;45.84;100249.74;1384325;93;22443;-86
2022/05/21 01:39:15;;;;;;;7.20;2.20;;;;;;;16.47;45.93;100245.91;1397937;92;21482;-86
2022/05/21 01:41:43;;;;;;;5.70;2.63;;;;;;;16.44;46.09;100262.32;1398860;92;21615;-85
2022/05/21 01:46:56;;;;;;;6.20;2.10;;;;;;;16.39;46.17;100271.40;1381045;93;21487;-86
2022/05/21 01:49:23;;;;;;;6.00;2.20;;;;;;;16.38;46.23;100275.61;1394135;93;22566;-86
2022/05/21 01:51:49;;;;;;;7.53;2.20;;;;;;;16.34;46.30;100285.85;1395653;92;21406;-86
2022/05/21 01:54:16;;;;;;;5.43;1.80;;;;;;;16.32;46.34;100288.39;1441260;90;21473;-86
2022/05/21 01:56:42;;;;;;;6.07;1.83;;;;;;;16.31;46.64;100282.70;1432471;91;22567;-89
2022/05/21 01:59:08;;;;;;;5.23;2.60;;;;;;;16.27;46.73;100267.58;1435736;89;23410;-88
2022/05/21 02:01:34;;;;;;;5.90;2.00;;;;;;;16.27;46.76;100265.42;1434670;90;21445;-84
2022/05/21 02:04:00;;;;;;;11.63;3.60;;;;;;;16.24;46.88;100276.79;1440983;90;21430;-85
2022/05/21 02:06:28;;;;;;;7.83;2.27;;;;;;;16.22;46.90;100259.30;1438186;90;21612;-86
2022/05/21 02:08:54;;;;;;;8.37;2.40;;;;;;;16.21;47.02;100257.66;1438459;89;21525;-85
2022/05/21 02:11:20;;;;;;;7.90;2.53;;;;;;;16.19;47.16;100253.83;1426931;90;21491;-87
2022/05/21 02:13:46;;;;;;;3.37;2.03;;;;;;;16.16;47.61;100264.88;1445114;89;21473;-87
2022/05/21 02:16:12;;;;;;;5.97;2.60;;;;;;;16.15;47.41;100247.73;1431473;90;21974;-87
2022/05/21 02:18:39;;;;;;;7.30;2.07;;;;;;;16.13;47.62;100256.43;1411059;91;22386;-87
2022/05/21 02:21:07;;;;;;;7.10;1.93;;;;;;;16.14;47.68;100256.73;1430829;90;21511;-87
2022/05/21 02:23:33;;;;;;;3.07;1.97;;;;;;;16.12;47.75;100242.26;1432416;90;21511;-86
2022/05/21 02:26:00;;;;;;;9.83;2.50;;;;;;;16.13;47.82;100259.09;1441743;89;21693;-87
2022/05/21 02:28:28;;;;;;;5.37;2.07;;;;;;;16.11;47.98;100271.31;1385286;93;21709;-86
2022/05/21 02:30:55;;;;;;;6.60;2.20;;;;;;;16.11;47.95;100279.81;1398039;92;21684;-87
2022/05/21 02:33:21;;;;;;;4.50;2.20;;;;;;;16.10;47.97;100280.32;1391591;92;21579;-87
2022/05/21 02:35:47;;;;;;;7.43;2.30;;;;;;;16.12;48.03;100279.64;1403831;93;23202;-87
2022/05/21 02:40:58;;;;;;;5.73;2.63;;;;;;;16.17;48.04;100260.36;1399694;93;21560;-87
2022/05/21 02:43:24;;;;;;;6.20;2.37;;;;;;;16.19;48.23;100262.34;1405430;93;21422;-86
2022/05/21 02:45:51;;;;;;;4.20;2.13;;;;;;;16.18;48.21;100273.54;1385415;93;21563;-86
2022/05/21 02:48:17;;;;;;;5.50;2.00;;;;;;;16.17;48.03;100273.23;1403630;93;22428;-87
2022/05/21 02:50:44;;;;;;;8.60;2.70;;;;;;;16.17;48.19;100267.89;1402425;92;21460;-86
2022/05/21 02:53:17;;;;;;;2.90;1.73;;;;;;;16.18;48.13;100247.36;1396829;93;21577;-86
2022/05/21 02:55:46;;;;;;;5.67;2.07;;;;;;;16.17;48.22;100248.35;1397840;93;21618;-87
2022/05/21 02:58:13;;;;;;;8.63;2.73;;;;;;;16.15;48.19;100248.55;1390381;93;21570;-86
2022/05/21 03:00:42;;;;;;;242.60;13.03;;;;;;;16.14;48.30;100264.75;1404997;93;23043;-86
2022/05/21 03:03:08;;;;;;;13.30;2.40;;;;;;;16.11;48.42;100264.64;1416085;91;21571;-87
2022/05/21 03:05:35;;;;;;;9.13;1.87;;;;;;;16.06;48.47;100256.36;1417431;91;22660;-86
2022/05/21 03:10:20;;;;;;;4.47;2.33;;;;;;;16.07;48.45;100257.19;1423148;91;21511;-86
2022/05/21 03:10:31;;;;;;;6.20;2.23;;;;;;;16.04;48.59;100266.39;1418196;91;21689;-86
2022/05/21 03:13:01;;;;;;;8.93;2.10;;;;;;;16.01;48.72;100260.91;1419752;91;22369;-85
2022/05/21 03:15:35;;;;;;;6.70;2.20;;;;;;;16.00;48.84;100249.92;1402137;92;21468;-86
2022/05/21 03:18:06;;;;;;;4.63;2.10;;;;;;;15.98;48.96;100242.61;1419718;92;22539;-86
2022/05/21 03:20:32;;;;;;;;;;;;;;;15.98;48.99;100229.27;1403103;92;21526;-86
2022/05/21 03:22:58;;;;;;;10.03;2.07;;;;;;;15.97;49.29;100232.14;1403085;93;20366;-86
2022/05/21 03:25:25;;;;;;;3.97;2.27;;;;;;;15.95;48.90;100238.16;1406633;91;21505;-86
2022/05/21 03:27:52;;;;;;;7.00;2.47;;;;;;;15.94;49.01;100235.15;1394290;93;21503;-86
2022/05/21 03:30:23;;;;;;;6.30;3.00;;;;;;;15.94;49.17;100231.14;1404373;92;21437;-85
2022/05/21 03:32:50;;;;;;;3.27;2.30;;;;;;;15.92;49.31;100241.20;1401974;93;21496;-85
2022/05/21 03:35:18;;;;;;;3.50;2.17;;;;;;;15.93;49.41;100247.67;1397241;92;22391;-87
2022/05/21 03:37:44;;;;;;;7.07;2.50;;;;;;;15.94;49.57;100240.00;1406940;93;21618;-87
2022/05/21 03:40:16;;;;;;;3.23;1.97;;;;;;;15.97;49.65;100232.14;1401114;93;21576;-87
2022/05/21 03:42:42;;;;;;;6.43;2.07;;;;;;;15.99;49.77;100230.91;1402947;92;22463;-86
2022/05/21 03:45:10;;;;;;;4.47;2.30;;;;;;;16.02;49.82;100247.05;1409745;92;21696;-86
2022/05/21 03:47:38;;;;;;;10.33;2.00;;;;;;;16.05;49.82;100246.67;1431725;91;21414;-87
2022/05/21 03:50:05;;;;;;;5.90;2.10;;;;;;;16.07;49.87;100232.64;1419351;92;21459;-86
2022/05/21 03:52:32;;;;;;;12.00;3.77;;;;;;;16.12;49.72;100233.42;1392779;93;22480;-89
2022/05/21 03:54:58;;;;;;;8.67;2.30;;;;;;;16.15;49.67;100224.52;1380259;93;21430;-88
2022/05/21 03:57:24;;;;;;;8.17;2.33;;;;;;;16.19;49.61;100224.45;1404980;93;21564;-87
2022/05/21 03:59:50;;;;;;;10.50;2.80;;;;;;;16.23;49.52;100224.92;1415370;91;21680;-87
2022/05/21 04:02:17;;;;;;;11.03;2.70;;;;;;;16.27;49.57;100232.87;1417246;91;22384;-88
2022/05/21 04:04:43;;;;;;;8.93;2.50;;;;;;;16.30;49.61;100222.31;1422168;91;21548;-87
2022/05/21 04:07:10;;;;;;;10.03;2.07;;;;;;;16.34;49.55;100220.91;1425289;91;21445;-85
2022/05/21 04:09:37;;;;;;;7.07;2.17;;;;;;;16.39;49.46;100222.50;1417084;91;21695;-85
2022/05/21 04:12:04;;;;;;;10.67;2.53;;;;;;;16.42;49.52;100226.95;1421735;91;23487;-85
2022/05/21 04:14:31;;;;;;;4.10;1.90;;;;;;;16.44;49.63;100232.12;1417253;92;21444;-84
2022/05/21 04:16:59;;;;;;;10.40;2.23;;;;;;;16.45;49.49;100237.25;1422114;92;22583;-85
2022/05/21 04:19:27;;;;;;;8.80;2.90;;;;;;;16.47;49.59;100247.25;1416341;92;21488;-86
2022/05/21 04:21:53;;;;;;;10.10;2.60;;;;;;;16.50;49.66;100265.25;1402319;92;21578;-86
2022/05/21 04:24:20;;;;;;;4.30;2.23;;;;;;;16.50;49.77;100275.42;1404246;93;21526;-87
2022/05/21 04:26:47;;;;;;;6.73;2.20;;;;;;;16.53;49.81;100281.72;1403633;93;21503;-87
2022/05/21 04:29:15;;;;;;;6.17;2.50;;;;;;;16.55;49.89;100302.41;1388630;93;21452;-88
2022/05/21 04:31:44;;;;;;;8.20;2.33;;;;;;;16.59;49.83;100315.69;1404368;92;21467;-88
2022/05/21 04:34:11;;;;;;;30.30;3.30;;;;;;;16.60;50.73;100309.83;1407209;92;21578;-90
2022/05/21 04:36:37;;;;;;;10.57;3.00;;;;;;;16.59;51.56;100304.18;1426457;92;21603;-86
2022/05/21 04:39:04;;;;;;;10.73;3.13;;;;;;;16.55;53.17;100317.61;1429600;91;21467;-87
2022/05/21 04:41:30;;;;;;;7.43;2.97;;;;;;;16.44;54.53;100317.59;1409913;91;21445;-87
2022/05/21 04:43:57;;;;;;;8.83;2.60;;;;;;;16.34;55.48;100307.70;1405916;93;22488;-86
2022/05/21 04:46:26;;;;;;;12.40;3.07;;;;;;;16.26;55.62;100306.50;1400466;93;23617;-86
2022/05/21 04:48:52;;;;;;;14.77;3.20;;;;;;;16.20;56.63;100296.89;1383745;93;21429;-85
2022/05/21 04:51:19;;;;;;;15.40;3.70;;;;;;;16.18;57.16;100311.44;1395397;93;21401;-86
2022/05/21 04:53:46;;;;;;;10.03;2.93;;;;;;;16.20;57.13;100302.73;1410628;92;21593;-86
2022/05/21 04:56:12;;;;;;;7.57;2.70;;;;;;;16.26;58.88;100305.17;1369350;94;21628;-86
2022/05/21 04:58:39;;;;;;;18.37;3.13;;;;;;;16.33;60.02;100310.06;1404058;91;21408;-84
2022/05/21 05:01:07;;;;;;;12.93;2.77;;;;;;;16.45;60.42;100316.56;1418384;91;21400;-84
2022/05/21 05:03:33;;;;;;;9.60;3.20;;;;;;;16.57;60.41;100304.39;1427384;91;21400;-84
2022/05/21 05:06:01;;;;;;;10.50;2.83;;;;;;;16.68;60.23;100308.37;1423470;91;21444;-82
2022/05/21 05:08:28;;;;;;;13.33;4.27;;;;;;;16.80;59.47;100288.69;1425769;91;21578;-82
2022/05/21 05:10:55;;;;;;;9.13;3.80;;;;;;;16.87;59.59;100296.27;1417446;92;21615;-83
2022/05/21 05:13:21;;;;;;;9.27;3.97;;;;;;;16.95;59.82;100276.61;1398487;92;22371;-81
2022/05/21 05:15:49;;;;;;;9.57;4.37;;;;;;;17.01;59.72;100283.34;1409223;92;21436;-82
2022/05/21 05:18:22;;;;;;;11.70;3.90;;;;;;;17.07;59.27;100275.05;1454521;90;21472;-85
2022/05/21 05:20:50;;;;;;;7.30;3.87;;;;;;;17.13;59.38;100263.06;1402236;93;21968;-85
2022/05/21 05:23:17;;;;;;;14.07;5.00;;;;;;;17.18;59.26;100250.46;1374404;93;22669;-86
2022/05/21 05:25:43;;;;;;;8.10;4.80;;;;;;;17.23;59.18;100235.97;1391057;93;21405;-87
2022/05/21 05:28:19;;;;;;;7.83;4.47;;;;;;;17.24;59.14;100230.95;1385505;93;21550;-87
2022/05/21 05:30:48;;;;;;;13.20;3.73;;;;;;;17.28;59.32;100221.50;1422058;90;21665;-86
2022/05/21 05:33:16;;;;;;;10.13;3.73;;;;;;;17.29;59.28;100220.98;1434716;90;21654;-86
2022/05/21 05:35:43;;;;;;;9.10;3.70;;;;;;;17.29;59.11;100229.01;1446235;90;22395;-86
2022/05/21 05:38:12;;;;;;;6.57;4.07;;;;;;;17.31;58.95;100242.50;1435732;90;21437;-86
2022/05/21 05:40:41;;;;;;;16.20;4.63;;;;;;;17.34;59.28;100244.78;1430693;90;21375;-85
2022/05/21 05:43:08;;;;;;;8.07;3.23;;;;;;;17.39;58.88;100246.88;1438016;89;21487;-85
2022/05/21 05:45:34;;;;;;;20.60;4.30;;;;;;;17.43;58.36;100241.44;1384555;93;21422;-85
2022/05/21 05:48:00;;;;;;;10.37;3.50;;;;;;;17.50;58.63;100245.00;1396969;93;23014;-84
2022/05/21 05:50:26;;;;;;;10.20;3.60;;;;;;;17.57;58.34;100244.51;1378945;93;21460;-85
2022/05/21 05:52:53;;;;;;;8.90;3.00;;;;;;;17.67;58.01;100248.70;1382381;93;21474;-87
2022/05/21 05:55:20;;;;;;;11.70;3.50;;;;;;;17.75;57.92;100222.59;1404327;92;21529;-86
2022/05/21 05:57:52;;;;;;;7.53;3.77;;;;;;;17.84;57.63;100219.26;1399801;92;21631;-85
2022/05/21 06:00:21;;;;;;;6.13;3.97;;;;;;;17.90;57.42;100203.73;1404161;92;21564;-86
2022/05/21 06:03:01;;;;;;;10.13;3.83;;;;;;;17.91;57.29;100187.97;1412160;91;21450;-86
2022/05/21 06:05:32;;;;;;;7.13;3.27;;;;;;;17.94;57.43;100185.41;1403982;91;22113;-84
2022/05/21 06:08:03;;;;;;;10.67;3.80;;;;;;;17.96;57.76;100169.45;1393495;92;21414;-84
2022/05/21 06:10:32;;;;;;;;;;;;;;;17.99;57.65;100159.67;1397482;93;21612;-85
2022/05/21 06:12:59;;;;;;;12.83;3.60;;;;;;;17.98;58.87;100160.72;1406508;93;20955;-85
2022/05/21 06:15:26;;;;;;;15.33;3.80;;;;;;;18.00;58.43;100158.64;1395431;92;21371;-85
2022/05/21 06:17:53;;;;;;;7.23;3.87;;;;;;;18.03;59.49;100168.94;1390921;93;21674;-83
2022/05/21 06:20:24;;;;;;;8.23;3.37;;;;;;;18.08;58.74;100167.53;1391373;93;21541;-83
2022/05/21 06:22:50;;;;;;;6.57;3.50;;;;;;;18.11;59.02;100157.75;1373919;94;22477;-84
2022/05/21 06:25:21;;;;;;;5.90;4.00;;;;;;;18.15;61.18;100176.38;1382888;93;21430;-84
2022/05/21 06:27:50;;;;;;;11.80;4.13;;;;;;;18.22;61.32;100197.33;1401426;91;21517;-86
2022/05/21 06:30:19;;;;;;;7.00;3.77;;;;;;;18.28;60.59;100206.41;1402679;93;21504;-86
2022/05/21 06:32:46;;;;;;;7.77;4.53;;;;;;;18.32;60.40;100212.47;1395440;92;21461;-87
2022/05/21 06:35:15;;;;;;;11.13;4.00;;;;;;;18.34;60.85;100199.70;1412482;91;21533;-85
2022/05/21 06:37:41;;;;;;;15.03;4.20;;;;;;;18.39;60.09;100185.71;1413169;91;22296;-84
2022/05/21 06:40:09;;;;;;;10.17;3.60;;;;;;;18.44;60.03;100172.02;1408674;92;21622;-86
2022/05/21 06:42:35;;;;;;;16.13;5.20;;;;;;;18.49;60.10;100168.18;1411418;92;21539;-86
2022/05/21 06:45:02;;;;;;;8.80;4.27;;;;;;;18.55;60.16;100183.13;1392721;92;21639;-84
2022/05/21 06:47:28;;;;;;;13.40;4.57;;;;;;;18.59;60.34;100172.33;1407337;91;22391;-86
2022/05/21 06:49:56;;;;;;;16.70;4.27;;;;;;;18.68;60.78;100171.08;1400654;92;21569;-86
2022/05/21 06:52:24;;;;;;;17.40;4.17;;;;;;;18.75;61.50;100169.23;1391578;93;22426;-84
2022/05/21 06:54:51;;;;;;;6.10;3.67;;;;;;;18.86;61.24;100171.30;1401470;93;21466;-84
2022/05/21 06:57:18;;;;;;;13.47;5.30;;;;;;;18.92;60.77;100175.82;1417161;92;22459;-85
2022/05/21 06:59:45;;;;;;;16.43;4.63;;;;;;;19.00;61.17;100188.20;1411669;92;21606;-87
2022/05/21 07:02:11;;;;;;;7.83;4.00;;;;;;;19.09;60.68;100177.55;1418064;91;21665;-87
2022/05/21 07:07:35;;;;;;;7.97;3.77;;;;;;;19.36;60.52;100131.38;1409319;91;22427;-87
2022/05/21 07:10:13;;;;;;;11.53;4.47;;;;;;;19.46;60.05;100112.13;1412887;91;21541;-86
2022/05/21 07:12:39;;;;;;;8.83;4.00;;;;;;;19.54;60.47;100076.17;1394826;91;21686;-86
2022/05/21 07:15:08;;;;;;;9.07;4.00;;;;;;;19.55;60.42;100061.70;1408222;92;21516;-86
2022/05/21 07:17:34;;;;;;;9.33;5.03;;;;;;;19.60;60.84;100039.07;1419724;91;21594;-86
2022/05/21 07:20:10;;;;;;;15.57;4.70;;;;;;;19.71;60.66;100073.80;1419221;92;21585;-85
2022/05/21 07:22:46;;;;;;;16.40;5.43;;;;;;;19.85;60.58;100063.28;1410623;92;21497;-84
2022/05/21 07:25:17;;;;;;;13.63;4.57;;;;;;;20.00;60.19;100065.69;1390106;93;22568;-85
2022/05/21 07:27:43;;;;;;;8.87;4.77;;;;;;;20.17;59.77;100057.38;1388865;93;21443;-85
2022/05/21 07:30:11;;;;;;;12.20;3.75;;;;;;;20.43;59.29;100077.02;1418971;92;21511;-86
2022/05/21 07:32:37;;;;;;;21.25;5.92;;;;;;;20.76;58.90;100075.89;1429008;91;21481;-86
2022/05/21 07:35:09;;;;;;;13.95;4.97;;;;;;;21.03;57.54;100065.14;1410401;92;22567;-86
2022/05/21 07:37:35;;;;;;;22.52;5.75;;;;;;;21.25;56.90;100082.16;1381467;94;21439;-86
2022/05/21 07:40:03;;;;;;;18.60;5.62;;;;;;;21.50;57.06;100106.31;1424381;91;22412;-84
2022/05/21 07:42:30;;;;;;;10.20;4.85;;;;;;;21.85;56.70;100113.17;1434967;90;22374;-86
2022/05/21 07:44:59;;;;;;;6.85;4.58;;;;;;;22.01;54.76;100100.41;1441192;90;21478;-86
2022/05/21 07:47:25;;;;;;;17.80;5.30;;;;;;;21.91;53.84;100113.60;1420740;90;21621;-86
2022/05/21 07:49:56;;;;;;;9.58;4.33;;;;;;;21.84;54.49;100111.02;1433255;90;21478;-85
2022/05/21 07:52:22;;;;;;;13.13;4.72;;;;;;;21.81;55.15;100109.31;1436489;90;22453;-86
2022/05/21 07:54:48;;;;;;;15.25;5.90;;;;;;;21.94;55.42;100106.41;1431495;90;21496;-84
2022/05/21 07:57:15;;;;;;;11.50;5.10;;;;;;;21.98;55.84;100098.17;1425590;90;21414;-85
2022/05/21 07:59:41;;;;;;;9.75;4.62;;;;;;;22.05;55.40;100093.49;1439713;90;21457;-85
2022/05/21 08:02:15;;;;;;;15.43;4.42;;;;;;;22.18;55.42;100101.09;1422862;89;21456;-85
2022/05/21 08:04:43;;;;;;;10.23;4.45;;;;;;;22.27;54.38;100109.98;1388516;93;22643;-86
2022/05/21 08:07:10;;;;;;;18.25;4.33;;;;;;;22.46;53.54;100114.73;1384480;92;21428;-84
2022/05/21 08:09:37;;;;;;;11.90;5.30;;;;;;;22.75;53.14;100117.55;1407707;92;22392;-84
2022/05/21 08:12:05;;;;;;;13.55;5.50;;;;;;;23.03;51.29;100098.50;1386011;93;21608;-84
2022/05/21 08:14:33;;;;;;;9.53;4.58;;;;;;;23.03;51.29;100098.50;1388462;93;21468;-85
2022/05/21 08:17:00;;;;;;;15.58;5.30;;;;;;;23.04;51.63;100120.38;1410436;91;22428;-85
2022/05/21 08:19:27;;;;;;;12.53;4.75;;;;;;;23.04;51.66;100145.48;1420064;91;21629;-85
2022/05/21 08:21:53;;;;;;;12.47;4.78;;;;;;;22.97;51.29;100157.75;1407276;93;21444;-85
2022/05/21 08:27:04;;;;;;;12.15;4.58;;;;;;;22.90;51.03;100142.70;1386162;93;21613;-86
2022/05/21 08:29:35;;;;;;;24.45;5.42;;;;;;;23.32;50.94;100109.62;1395106;92;21584;-85
2022/05/21 08:32:04;;;;;;;6.65;4.22;;;;;;;23.32;50.94;100109.62;1404384;92;21408;-86
2022/05/21 08:34:31;;;;;;;7.67;4.10;;;;;;;23.53;50.44;100100.58;1400214;92;21557;-86
2022/05/21 08:36:57;;;;;;;11.22;3.83;;;;;;;23.67;50.26;100115.44;1410738;92;21468;-85
2022/05/21 08:39:23;;;;;;;19.52;3.90;;;;;;;23.73;50.57;100125.84;1390641;93;21460;-84
2022/05/21 08:41:57;;;;;;;9.80;3.75;;;;;;;23.70;49.97;100121.73;1395948;93;21467;-83
2022/05/21 08:44:46;;;;;;;11.00;3.77;;;;;;;23.62;49.71;100119.38;1403569;92;21673;-85
2022/05/21 08:47:18;;;;;;;5.90;3.10;;;;;;;23.71;50.19;100116.64;1406450;93;22413;-85
2022/05/21 08:49:50;;;;;;;10.15;3.90;;;;;;;24.00;50.31;100112.56;1403388;92;21525;-83
2022/05/21 08:52:27;;;;;;;6.45;3.35;;;;;;;24.38;49.50;100100.20;1413159;92;22449;-87
2022/05/21 08:54:57;;;;;;;6.92;4.60;;;;;;;24.56;49.14;100106.73;1403521;92;21596;-84
2022/05/21 08:57:49;;;;;;;9.50;3.98;;;;;;;24.63;49.17;100101.98;1405865;92;22288;-84
2022/05/21 09:00:39;;;;;;;10.13;3.50;;;;;;;24.60;48.92;100102.48;1410300;91;22478;-83
2022/05/21 09:03:10;;;;;;;7.87;3.93;;;;;;;24.57;49.56;100112.95;1399473;92;21549;-83
2022/05/21 09:05:40;;;;;;;7.22;3.70;;;;;;;24.52;49.20;100098.30;1409249;92;21550;-82
2022/05/21 09:08:28;;;;;;;9.13;3.80;;;;;;;24.66;49.29;100090.66;1402307;92;21732;-83
2022/05/21 09:11:06;;;;;;;9.78;3.58;;;;;;;24.89;49.25;100085.56;1340385;97;21454;-83
2022/05/21 09:14:01;;;;;;;5.55;3.70;;;;;;;25.12;48.57;100088.56;1384884;92;22430;-81
2022/05/21 09:16:56;;;;;;;8.23;3.60;;;;;;;25.35;48.67;100070.45;1402949;92;21602;-83
2022/05/21 09:19:35;;;;;;;6.55;3.27;;;;;;;25.43;48.60;100062.70;1398584;92;21547;-81
2022/05/21 09:22:10;;;;;;;9.93;3.08;;;;;;;25.57;48.25;100060.91;1396059;92;21451;-82
2022/05/21 09:24:47;;;;;;;7.92;3.58;;;;;;;25.76;48.73;100052.71;1393581;93;21549;-94
2022/05/21 09:27:36;;;;;;;9.55;3.27;;;;;;;26.12;48.16;100044.89;1401994;92;21630;-96
2022/05/21 09:30:31;;;;;;;12.60;3.50;;;;;;;26.19;48.22;100044.69;1388848;92;22244;-91
2022/05/21 09:33:03;;;;;;;6.37;2.95;;;;;;;26.24;48.09;100038.77;1380150;93;21579;-93
2022/05/21 09:35:33;;;;;;;6.95;3.15;;;;;;;26.22;47.76;100034.68;1424181;90;21484;-93
2022/05/21 09:38:22;;;;;;;5.92;2.60;;;;;;;26.16;47.46;100033.02;1385645;90;21473;-91
2022/05/21 09:40:49;;;;;;;9.10;2.80;;;;;;;26.15;46.97;100030.00;1415284;90;21288;-96
2022/05/21 09:46:26;;;;;;;5.70;3.33;;;;;;;26.34;46.60;100028.52;1428251;90;21532;-95
2022/05/21 09:48:56;;;;;;;11.30;3.25;;;;;;;26.27;46.92;100038.25;1444746;89;21548;-92
2022/05/21 09:51:30;;;;;;;12.78;3.00;;;;;;;26.16;47.55;100027.59;1444659;89;22538;-90
2022/05/21 09:53:58;;;;;;;10.95;4.37;;;;;;;26.04;47.88;100034.01;1412761;90;21493;-92
2022/05/21 09:56:31;;;;;;;5.28;2.67;;;;;;;26.09;48.02;100023.17;1441821;89;21401;-91
2022/05/21 09:59:17;;;;;;;13.48;3.30;;;;;;;26.31;47.76;100026.33;1438096;89;21393;-93
2022/05/21 10:01:54;;;;;;;16.55;3.12;;;;;;;26.53;47.91;100028.40;1415009;91;21366;-96
2022/05/21 10:04:38;;;;;;;8.33;3.40;;;;;;;26.81;46.59;100020.92;1444836;90;21354;-91
2022/05/21 10:13:19;;;;;;;7.55;2.77;;;;;;;26.89;46.26;100015.53;1434431;89;21570;-88
2022/05/21 10:15:50;;;;;;;5.58;3.02;;;;;;;26.96;45.98;100013.40;1442315;90;21446;-87
2022/05/21 10:18:43;;;;;;;8.05;3.02;;;;;;;27.06;45.89;100011.25;1404782;91;21742;-87
2022/05/21 10:21:25;;;;;;;11.57;2.85;;;;;;;27.26;44.81;100005.91;1388221;94;21490;-87
2022/05/21 10:23:56;;;;;;;11.70;3.20;;;;;;;27.49;45.24;100002.41;1428896;90;21516;-87
2022/05/21 10:26:46;;;;;;;9.53;3.33;;;;;;;27.72;44.63;99993.73;1428558;89;21532;-88
2022/05/21 10:29:33;;;;;;;5.97;2.80;;;;;;;27.82;43.83;99999.20;1435459;90;22366;-86
2022/05/21 10:32:52;;;;;;;6.50;2.62;;;;;;;27.76;43.82;99992.08;1433865;90;21577;-89
2022/05/21 10:35:33;;;;;;;9.48;2.90;;;;;;;27.79;43.74;99995.64;1392149;91;21732;-86
2022/05/21 10:38:47;;;;;;;5.45;2.47;;;;;;;27.94;43.58;100002.17;1422911;90;21474;-90
2022/05/21 10:41:45;;;;;;;8.25;2.50;;;;;;;28.08;43.50;99997.80;1389377;92;22462;-88
2022/05/21 10:44:20;;;;;;;5.97;2.17;;;;;;;28.16;43.00;99998.61;1429436;89;21740;-88
2022/05/21 10:46:58;;;;;;;10.82;2.58;;;;;;;28.27;42.66;99988.53;1451632;88;21532;-87
2022/05/21 10:49:57;;;;;;;5.58;2.27;;;;;;;28.43;42.35;99986.63;1453146;89;21424;-90
2022/05/21 10:52:59;;;;;;;5.22;1.87;;;;;;;28.48;41.42;99981.95;1455297;90;21459;-89
2022/05/21 10:56:08;;;;;;;8.33;3.22;;;;;;;28.40;41.41;99970.28;1443790;90;21467;-88
2022/05/21 10:58:57;;;;;;;8.35;2.47;;;;;;;28.34;41.02;99972.20;1454883;89;22465;-88
2022/05/21 11:01:52;;;;;;;7.50;2.30;;;;;;;28.32;41.15;99960.77;1449230;89;21601;-90
2022/05/21 11:04:56;;;;;;;5.37;2.83;;;;;;;28.39;40.95;99963.73;1451340;90;21586;-87
2022/05/21 11:07:45;;;;;;;7.85;2.30;;;;;;;28.48;41.22;99951.21;1434308;90;21557;-88
2022/05/21 11:10:19;;;;;;;5.12;2.98;;;;;;;28.60;40.72;99955.81;1442481;90;21639;-89
2022/05/21 11:13:17;;;;;;;4.75;2.58;;;;;;;28.83;40.34;99946.70;1423210;90;21483;-89
2022/05/21 11:15:52;;;;;;;6.12;2.62;;;;;;;28.95;39.96;99960.81;1428932;90;22434;-89
2022/05/21 11:18:39;;;;;;;9.30;2.80;;;;;;;29.05;39.20;99952.60;1448043;89;21562;-88
2022/05/21 11:21:35;;;;;;;6.40;2.58;;;;;;;29.21;38.84;99950.61;1436293;90;21591;-88
2022/05/21 11:24:08;;;;;;;6.53;2.40;;;;;;;29.16;39.05;99945.19;1434955;90;21460;-88
2022/05/21 11:26:55;;;;;;;8.93;2.00;;;;;;;29.16;39.52;99943.27;1429996;91;21526;-89
2022/05/21 11:29:39;;;;;;;4.42;2.52;;;;;;;29.16;34.94;99939.73;1428374;91;22383;-91
2022/05/21 11:37:53;;;;;;;8.73;2.90;;;;;;;29.37;30.07;99934.95;1427121;90;21638;-87
2022/05/21 11:47:14;;;;;;;6.45;2.10;;;;;;;29.83;31.90;99927.20;1443036;89;21693;-88
2022/05/21 11:49:49;;;;;;;9.18;3.20;;;;;;;29.69;31.95;99942.61;1441625;89;21453;-88
2022/05/21 11:52:39;;;;;;;16.62;3.02;;;;;;;29.64;31.98;99934.50;1449316;90;21517;-89
2022/05/21 11:55:14;;;;;;;6.90;2.52;;;;;;;29.72;32.71;99944.77;1446957;90;21616;-87
2022/05/21 11:57:44;;;;;;;6.17;1.80;;;;;;;29.76;31.56;99925.94;1426926;90;21494;-87
2022/05/21 12:00:27;;;;;;;7.90;1.90;;;;;;;29.59;32.58;99927.13;1406018;90;22290;-90
2022/05/21 12:03:00;;;;;;;5.35;2.70;;;;;;;29.72;32.59;99924.86;1389464;91;22452;-88
2022/05/21 12:05:53;;;;;;;10.88;3.05;;;;;;;29.83;32.21;99917.66;1426267;90;22347;-93
2022/05/21 12:08:33;;;;;;;11.35;2.20;;;;;;;29.91;32.30;99917.59;1353079;94;21376;-94
2022/05/21 12:11:34;;;;;;;5.22;2.25;;;;;;;30.16;31.50;99917.87;1296745;97;21496;-94
2022/05/21 12:14:20;;;;;;;5.85;2.33;;;;;;;30.38;31.72;99910.53;1344517;95;21690;-93
2022/05/21 12:16:57;;;;;;;6.03;2.52;;;;;;;30.48;31.68;99915.88;1377295;95;21533;-90
2022/05/21 12:19:52;;;;;;;216.97;12.43;;;;;;;30.74;31.93;99912.82;1410921;93;21524;-91
2022/05/21 12:22:50;;;;;;;10.78;1.77;;;;;;;30.82;30.75;99905.92;1390610;92;21531;-88